Charter Quote
Worldwide +1-877-727-2538 Call
Select Language Lang
SAFETY RELIABILITY EXPERIENCE

Private Jet Charter Services - Huanghua (ZGHA)

Paramount Business Jets offers private jet charter flights and luxury airliner charters to and from Huanghua.

AIRPORT INFORMATION
ICAOZGHA
IATACSX
LOCATIONChangcha, China
FACILITY TYPEAIRPORT

At Paramount Business Jets you can hire chartered private jets to and from Huanghua with as little as 4 hours of notice. All flights booked via Paramount Business Jets are operated by certified direct air carriers that meet and exceed the FAA part 135 and 121 protocol or a foreign equivalent safety authority. Furthermore, Paramount Business Jets subscribes to ARGUS for their third party safety checks of operators, aircraft, and crews prior each and every flight to and from Huanghua and worldwide.

  • Quote a trip using Huanghua or call us 24/7 - 365 days a year at +1-877-727-2538.
Questions? Call +1-877-727-2538

METAR Weather Data at Huanghua, ZGHA, CSX

STATIONZGHA
OBSERVEDTue Jul 16, 04:00 UTC
NOWTue Jul 16, 04:49 UTC
AGE49 min ago
WINDS at 7 mph
VISIBILITY16 miles
CLOUDSmostly cloudy
TEMP93°F (34°C)
DEWPT75°F (24°C)
HUMIDITY56%
HEAT INDEX105°F (41°C)
BAROMETER1004 hPa (29.65 in Hg)
METARZGHA 160400Z 18003MPS 140V210 9999 BKN033 34/24 Q1004 NOSIG

Call us on +1-877-727-2538 (24 Hours) to Hire a Private Jet or Get a Quick Quote.

Find Airports Near any Location

Processing
...